createdAt,value
2022-08-17T00:00:43.214Z,15.68
2022-08-17T00:05:51.953Z,14.23
2022-08-17T00:10:55.034Z,13.48
2022-08-17T00:16:01.891Z,13.38
2022-08-17T00:21:10.363Z,12.73
2022-08-17T00:26:14.284Z,12.55
2022-08-17T00:31:17.115Z,12.75
2022-08-17T00:36:20.014Z,14.90
2022-08-17T00:41:25.685Z,14.52
2022-08-17T00:46:36.003Z,13.00
2022-08-17T00:51:56.514Z,12.15
2022-08-17T00:57:09.190Z,12.45
2022-08-17T01:02:15.096Z,13.25
2022-08-17T01:07:19.456Z,14.50
2022-08-17T01:12:21.949Z,13.15
2022-08-17T01:17:24.301Z,13.23
2022-08-17T01:22:27.302Z,13.60
2022-08-17T01:27:30.383Z,13.75
2022-08-17T01:32:33.321Z,13.20
2022-08-17T01:37:39.018Z,14.43
2022-08-17T01:43:11.056Z,14.55
2022-08-17T01:48:14.318Z,13.65
2022-08-17T01:53:21.019Z,13.77
2022-08-17T01:58:24.076Z,13.63
2022-08-17T02:03:26.575Z,13.73
2022-08-17T02:08:37.366Z,13.52
2022-08-17T02:13:43.774Z,14.85
2022-08-17T02:18:46.611Z,13.90
2022-08-17T02:23:50.142Z,14.27
2022-08-17T02:28:53.571Z,13.80
2022-08-17T02:34:00.243Z,13.93
2022-08-17T02:39:08.965Z,14.32
2022-08-17T02:44:12.240Z,13.65
2022-08-17T02:49:15.771Z,13.63
2022-08-17T02:54:41.233Z,13.63
2022-08-17T02:59:48.289Z,15.77
2022-08-17T03:04:51.276Z,15.18
2022-08-17T03:09:54.012Z,14.63
2022-08-17T03:14:56.409Z,14.65
2022-08-17T03:19:59.076Z,15.32
2022-08-17T03:25:01.789Z,14.48
2022-08-17T03:30:10.722Z,14.27
2022-08-17T03:35:16.461Z,13.57
2022-08-17T03:40:55.760Z,14.55
2022-08-17T03:46:02.823Z,15.32
2022-08-17T03:51:23.795Z,14.13
2022-08-17T03:56:44.101Z,15.00
2022-08-17T04:01:49.714Z,14.25
2022-08-17T04:06:55.726Z,14.77
2022-08-17T04:12:01.334Z,13.95
2022-08-17T04:17:07.296Z,14.35
2022-08-17T04:22:09.650Z,14.40
2022-08-17T04:27:32.030Z,15.40
2022-08-17T04:33:06.259Z,17.65
2022-08-17T04:38:13.078Z,16.85
2022-08-17T04:43:19.026Z,16.63
2022-08-17T04:48:21.626Z,17.73
2022-08-17T04:53:25.153Z,17.38
2022-08-17T04:58:27.536Z,16.67
2022-08-17T05:03:31.137Z,15.52
2022-08-17T05:08:33.767Z,16.33
2022-08-17T05:13:36.143Z,15.90
2022-08-17T05:18:39.078Z,15.85
2022-08-17T05:23:43.308Z,14.90
2022-08-17T05:28:46.388Z,16.52
2022-08-17T05:33:49.916Z,15.45
2022-08-17T05:38:52.773Z,15.38
2022-08-17T05:43:56.546Z,14.68
2022-08-17T05:49:07.996Z,15.20
2022-08-17T05:54:39.700Z,15.10
2022-08-17T06:00:00.134Z,15.65
2022-08-17T06:05:08.640Z,14.95
2022-08-17T06:10:34.023Z,15.27
2022-08-17T06:15:58.710Z,14.85
2022-08-17T06:21:04.660Z,14.85
2022-08-17T06:26:17.478Z,13.80
2022-08-17T06:31:31.035Z,15.00
2022-08-17T06:37:11.146Z,13.95
2022-08-17T06:43:04.045Z,12.70
2022-08-17T06:48:33.687Z,14.35
2022-08-17T06:53:43.007Z,13.02
2022-08-17T06:58:46.000Z,13.57
2022-08-17T07:03:59.445Z,14.30
2022-08-17T07:09:25.551Z,13.45
2022-08-17T07:14:51.849Z,13.30
2022-08-17T07:20:04.486Z,13.52
2022-08-17T07:25:10.285Z,11.88
2022-08-17T07:30:27.072Z,11.90
2022-08-17T07:35:43.980Z,11.82
2022-08-17T07:41:05.314Z,10.60
2022-08-17T07:46:43.120Z,10.15
2022-08-17T07:51:48.277Z,11.52
2022-08-17T07:57:08.921Z,10.15
2022-08-17T08:02:14.890Z,9.48
2022-08-17T08:07:20.552Z,9.15
2022-08-17T08:12:42.395Z,8.70
2022-08-17T08:17:55.434Z,8.60
2022-08-17T08:23:20.643Z,9.02
2022-08-17T08:28:43.068Z,9.43
2022-08-17T08:33:56.264Z,9.23
2022-08-17T08:39:04.670Z,9.23
2022-08-17T08:45:00.953Z,7.80
2022-08-17T08:50:30.265Z,7.95
2022-08-17T08:55:55.938Z,8.27
2022-08-17T09:00:59.867Z,7.47
2022-08-17T09:06:37.872Z,7.05
2022-08-17T09:12:02.797Z,7.90
2022-08-17T09:17:30.206Z,7.53
2022-08-17T09:22:48.471Z,6.75
2022-08-17T09:28:00.629Z,6.70
2022-08-17T09:33:08.350Z,6.40
2022-08-17T09:38:32.660Z,6.72
2022-08-17T09:43:56.182Z,6.90
2022-08-17T09:49:01.552Z,6.40
2022-08-17T09:54:37.128Z,6.60
2022-08-17T09:59:53.357Z,6.35
2022-08-17T10:05:21.579Z,6.22
2022-08-17T10:10:29.688Z,6.55
2022-08-17T10:16:12.276Z,6.88
2022-08-17T10:21:35.222Z,7.20
2022-08-17T10:26:55.968Z,6.97
2022-08-17T10:32:05.287Z,7.40
2022-08-17T10:37:19.961Z,7.32
2022-08-17T10:42:33.828Z,7.50
2022-08-17T10:48:06.379Z,7.43
2022-08-17T10:53:09.744Z,7.47
2022-08-17T10:58:22.251Z,7.30
2022-08-17T11:03:25.604Z,7.30
2022-08-17T11:08:48.436Z,7.07
2022-08-17T11:14:24.772Z,7.10
2022-08-17T11:19:51.193Z,6.45
2022-08-17T11:24:54.442Z,6.65
2022-08-17T11:30:02.881Z,6.18
2022-08-17T11:35:20.791Z,6.20
2022-08-17T11:40:42.065Z,6.68
2022-08-17T11:46:12.072Z,5.07
2022-08-17T11:51:35.981Z,5.45
2022-08-17T11:57:06.399Z,5.60
2022-08-17T12:02:47.500Z,6.70
2022-08-17T12:08:15.227Z,6.55
2022-08-17T12:13:19.390Z,5.97
2022-08-17T12:18:28.318Z,6.30
2022-08-17T12:23:48.359Z,5.45
2022-08-17T12:28:58.820Z,6.28
2022-08-17T12:34:04.974Z,6.30
2022-08-17T12:39:14.387Z,6.45
2022-08-17T12:44:33.508Z,5.25
2022-08-17T12:49:38.228Z,5.55
2022-08-17T12:54:59.578Z,6.15
2022-08-17T13:00:12.420Z,5.43
2022-08-17T13:05:28.066Z,5.20
2022-08-17T13:10:33.864Z,5.50
2022-08-17T13:15:51.434Z,5.72
2022-08-17T13:20:57.800Z,5.55
2022-08-17T13:26:16.974Z,6.20
2022-08-17T13:31:36.373Z,5.82
2022-08-17T13:36:43.721Z,5.63
2022-08-17T13:41:49.817Z,6.03
2022-08-17T13:46:57.088Z,6.13
2022-08-17T13:51:59.921Z,6.22
2022-08-17T13:57:08.037Z,5.93
2022-08-17T14:02:12.279Z,5.95
2022-08-17T14:07:16.231Z,6.40
2022-08-17T14:12:21.887Z,6.25
2022-08-17T14:17:26.011Z,5.85
2022-08-17T14:22:34.033Z,6.22
2022-08-17T14:27:51.722Z,6.00
2022-08-17T14:32:56.478Z,6.13
2022-08-17T14:37:58.986Z,6.30
2022-08-17T14:43:01.416Z,6.13
2022-08-17T14:48:07.714Z,6.90
2022-08-17T14:53:13.509Z,6.20
2022-08-17T14:58:15.924Z,5.80
2022-08-17T15:03:18.833Z,5.60
2022-08-17T15:08:21.475Z,6.18
2022-08-17T15:13:26.530Z,6.07
2022-08-17T15:18:30.353Z,6.32
2022-08-17T15:23:32.903Z,6.05
2022-08-17T15:28:37.723Z,6.38
2022-08-17T15:33:40.132Z,6.22
2022-08-17T15:38:44.434Z,6.20
2022-08-17T15:43:50.148Z,7.25
2022-08-17T15:48:58.233Z,6.10
2022-08-17T15:54:18.797Z,5.95
2022-08-17T15:59:21.836Z,6.18
2022-08-17T16:04:29.955Z,6.28
2022-08-17T16:09:33.802Z,5.90
2022-08-17T16:14:36.495Z,5.68
2022-08-17T16:19:40.248Z,6.65
2022-08-17T16:24:56.817Z,6.63
2022-08-17T16:30:00.910Z,6.25
2022-08-17T16:35:10.665Z,6.35
2022-08-17T16:40:15.422Z,5.78
2022-08-17T16:45:21.243Z,6.03
2022-08-17T16:50:24.642Z,5.95
2022-08-17T16:55:27.110Z,6.00
2022-08-17T17:00:30.483Z,7.05
2022-08-17T17:05:51.366Z,6.75
2022-08-17T17:11:08.973Z,6.22
2022-08-17T17:16:19.054Z,6.30
2022-08-17T17:21:31.284Z,10.80
2022-08-17T17:26:55.415Z,10.43
2022-08-17T17:32:38.097Z,10.65
2022-08-17T17:37:43.210Z,9.55
2022-08-17T17:42:45.848Z,7.78
2022-08-17T17:47:48.360Z,10.35
2022-08-17T17:53:05.097Z,8.38
2022-08-17T17:58:10.253Z,9.15
2022-08-17T18:03:22.086Z,8.45
2022-08-17T18:09:19.483Z,10.93
2022-08-17T18:14:37.637Z,9.50
2022-08-17T18:19:41.509Z,9.32
2022-08-17T18:24:47.426Z,10.07
2022-08-17T18:29:53.623Z,11.77
2022-08-17T18:35:02.418Z,12.10
2022-08-17T18:40:16.975Z,12.60
2022-08-17T18:45:33.638Z,10.90
2022-08-17T18:50:43.900Z,10.98
2022-08-17T18:55:48.173Z,10.38
2022-08-17T19:00:51.786Z,11.55
2022-08-17T19:05:57.544Z,11.52
2022-08-17T19:11:05.545Z,12.02
2022-08-17T19:16:14.697Z,10.57
2022-08-17T19:21:52.421Z,15.43
2022-08-17T19:27:13.802Z,13.50
2022-08-17T19:32:20.319Z,13.98
2022-08-17T19:37:25.428Z,13.70
2022-08-17T19:42:52.578Z,13.13
2022-08-17T19:48:14.223Z,14.40
2022-08-17T19:53:54.165Z,13.93
2022-08-17T19:59:15.545Z,12.00
2022-08-17T20:04:41.111Z,16.10
2022-08-17T20:09:54.125Z,14.40
2022-08-17T20:15:03.032Z,16.17
2022-08-17T20:20:29.846Z,15.40
2022-08-17T20:25:46.311Z,12.77
2022-08-17T20:30:48.938Z,12.45
2022-08-17T20:36:06.515Z,14.88
2022-08-17T20:41:25.170Z,16.05
2022-08-17T20:46:36.480Z,14.35
2022-08-17T20:52:02.217Z,13.98
2022-08-17T20:57:09.207Z,13.70
2022-08-17T21:02:21.764Z,14.10
2022-08-17T21:07:43.499Z,13.40
2022-08-17T21:12:51.633Z,12.90
2022-08-17T21:18:18.605Z,13.13
2022-08-17T21:23:47.224Z,13.15
2022-08-17T21:29:31.515Z,12.70
2022-08-17T21:34:39.214Z,11.75
2022-08-17T21:40:02.336Z,11.85
2022-08-17T21:45:26.110Z,11.05
2022-08-17T21:50:28.586Z,11.15
2022-08-17T21:55:35.711Z,11.35
2022-08-17T22:00:38.354Z,10.68
2022-08-17T22:05:40.975Z,10.85
2022-08-17T22:10:45.594Z,11.30
2022-08-17T22:16:28.380Z,11.93
2022-08-17T22:21:29.749Z,11.32
2022-08-17T22:27:00.272Z,12.23
2022-08-17T22:32:02.943Z,12.45
2022-08-17T22:37:27.876Z,11.20
2022-08-17T22:42:30.536Z,11.63
2022-08-17T22:47:40.995Z,12.40
2022-08-17T22:53:03.657Z,12.20
2022-08-17T22:58:34.215Z,11.93
2022-08-17T23:03:54.263Z,11.98
2022-08-17T23:08:57.737Z,11.88
2022-08-17T23:14:00.214Z,11.80
2022-08-17T23:19:02.580Z,12.95
2022-08-17T23:24:09.167Z,12.30
2022-08-17T23:29:11.536Z,12.48
2022-08-17T23:34:15.209Z,12.55
2022-08-17T23:39:27.706Z,13.43
2022-08-17T23:44:31.206Z,11.85
2022-08-17T23:49:33.685Z,12.15
2022-08-17T23:54:43.724Z,12.85
2022-08-17T23:59:46.965Z,13.35
